sensor_id;sensor_type;location;lat;lon;timestamp;temperature;humidity
20162;DHT22;51382;53.180;15.414;2023-08-24T00:05:57;15.00;99.90
20162;DHT22;51382;53.180;15.414;2023-08-24T00:21:08;14.70;99.90
20162;DHT22;51382;53.180;15.414;2023-08-24T00:36:20;14.70;99.90
20162;DHT22;51382;53.180;15.414;2023-08-24T00:51:31;14.70;99.90
20162;DHT22;51382;53.180;15.414;2023-08-24T01:06:43;15.20;99.90
20162;DHT22;51382;53.180;15.414;2023-08-24T01:21:55;15.10;99.90
20162;DHT22;51382;53.180;15.414;2023-08-24T01:37:11;14.90;99.90
20162;DHT22;51382;53.180;15.414;2023-08-24T01:52:22;15.30;99.90
20162;DHT22;51382;53.180;15.414;2023-08-24T02:07:35;15.40;99.90
20162;DHT22;51382;53.180;15.414;2023-08-24T02:22:48;15.20;99.90
20162;DHT22;51382;53.180;15.414;2023-08-24T02:37:59;15.20;99.90
20162;DHT22;51382;53.180;15.414;2023-08-24T02:53:10;15.50;99.90
20162;DHT22;51382;53.180;15.414;2023-08-24T03:08:22;15.30;99.90
20162;DHT22;51382;53.180;15.414;2023-08-24T03:23:33;15.40;99.90
20162;DHT22;51382;53.180;15.414;2023-08-24T03:38:45;15.60;99.90
20162;DHT22;51382;53.180;15.414;2023-08-24T03:53:56;15.60;99.90
20162;DHT22;51382;53.180;15.414;2023-08-24T04:09:08;15.90;99.90
20162;DHT22;51382;53.180;15.414;2023-08-24T04:24:19;15.70;99.90
20162;DHT22;51382;53.180;15.414;2023-08-24T04:39:31;15.80;99.90
20162;DHT22;51382;53.180;15.414;2023-08-24T04:54:43;15.90;99.90
20162;DHT22;51382;53.180;15.414;2023-08-24T05:09:55;16.30;99.90
20162;DHT22;51382;53.180;15.414;2023-08-24T05:25:07;16.70;99.90
20162;DHT22;51382;53.180;15.414;2023-08-24T05:40:18;17.50;99.90
20162;DHT22;51382;53.180;15.414;2023-08-24T05:55:30;18.40;99.90
20162;DHT22;51382;53.180;15.414;2023-08-24T06:10:41;18.40;99.90
20162;DHT22;51382;53.180;15.414;2023-08-24T06:25:52;20.40;99.90
20162;DHT22;51382;53.180;15.414;2023-08-24T06:41:04;21.00;99.90
20162;DHT22;51382;53.180;15.414;2023-08-24T06:56:17;22.40;99.90
20162;DHT22;51382;53.180;15.414;2023-08-24T07:11:28;22.90;99.90
20162;DHT22;51382;53.180;15.414;2023-08-24T07:26:39;22.10;99.90
20162;DHT22;51382;53.180;15.414;2023-08-24T07:41:51;24.10;94.10
20162;DHT22;51382;53.180;15.414;2023-08-24T07:57:02;24.40;92.70
20162;DHT22;51382;53.180;15.414;2023-08-24T08:12:14;25.10;92.00
20162;DHT22;51382;53.180;15.414;2023-08-24T08:27:20;25.90;90.70
20162;DHT22;51382;53.180;15.414;2023-08-24T08:42:32;26.50;78.20
20162;DHT22;51382;53.180;15.414;2023-08-24T08:57:44;26.60;78.90
20162;DHT22;51382;53.180;15.414;2023-08-24T09:12:57;26.10;81.40
20162;DHT22;51382;53.180;15.414;2023-08-24T09:28:09;25.70;75.20
20162;DHT22;51382;53.180;15.414;2023-08-24T09:43:21;25.90;74.70
20162;DHT22;51382;53.180;15.414;2023-08-24T09:58:34;28.90;65.60
20162;DHT22;51382;53.180;15.414;2023-08-24T10:13:46;27.30;68.60
20162;DHT22;51382;53.180;15.414;2023-08-24T10:29:07;29.30;61.90
20162;DHT22;51382;53.180;15.414;2023-08-24T10:44:23;30.20;60.60
20162;DHT22;51382;53.180;15.414;2023-08-24T10:59:43;27.60;66.80
20162;DHT22;51382;53.180;15.414;2023-08-24T11:14:55;27.40;66.60
20162;DHT22;51382;53.180;15.414;2023-08-24T11:30:08;27.50;66.10
20162;DHT22;51382;53.180;15.414;2023-08-24T11:45:20;27.80;64.70
20162;DHT22;51382;53.180;15.414;2023-08-24T12:00:32;27.30;65.50
20162;DHT22;51382;53.180;15.414;2023-08-24T12:15:44;26.00;69.90
20162;DHT22;51382;53.180;15.414;2023-08-24T12:30:58;25.80;70.60
20162;DHT22;51382;53.180;15.414;2023-08-24T12:46:11;26.20;71.30
20162;DHT22;51382;53.180;15.414;2023-08-24T13:01:23;26.40;69.00
20162;DHT22;51382;53.180;15.414;2023-08-24T13:16:35;26.70;66.80
20162;DHT22;51382;53.180;15.414;2023-08-24T13:31:46;27.00;64.90
20162;DHT22;51382;53.180;15.414;2023-08-24T13:46:57;26.90;64.00
20162;DHT22;51382;53.180;15.414;2023-08-24T14:02:09;26.20;64.00
20162;DHT22;51382;53.180;15.414;2023-08-24T14:17:21;27.00;63.00
20162;DHT22;51382;53.180;15.414;2023-08-24T14:32:32;27.10;63.40
20162;DHT22;51382;53.180;15.414;2023-08-24T14:47:44;26.50;62.50
20162;DHT22;51382;53.180;15.414;2023-08-24T15:02:55;26.20;64.70
20162;DHT22;51382;53.180;15.414;2023-08-24T15:18:07;26.60;62.70
20162;DHT22;51382;53.180;15.414;2023-08-24T15:33:19;26.50;63.20
20162;DHT22;51382;53.180;15.414;2023-08-24T15:48:30;26.90;61.70
20162;DHT22;51382;53.180;15.414;2023-08-24T16:03:42;27.00;62.40
20162;DHT22;51382;53.180;15.414;2023-08-24T16:18:53;26.10;67.10
20162;DHT22;51382;53.180;15.414;2023-08-24T16:34:04;25.30;73.30
20162;DHT22;51382;53.180;15.414;2023-08-24T16:49:11;24.80;81.60
20162;DHT22;51382;53.180;15.414;2023-08-24T17:04:22;24.60;85.50
20162;DHT22;51382;53.180;15.414;2023-08-24T17:19:34;24.00;89.30
20162;DHT22;51382;53.180;15.414;2023-08-24T17:34:45;23.60;86.60
20162;DHT22;51382;53.180;15.414;2023-08-24T17:49:56;22.70;90.60
20162;DHT22;51382;53.180;15.414;2023-08-24T18:05:08;22.30;92.50
20162;DHT22;51382;53.180;15.414;2023-08-24T18:20:20;21.40;97.10
20162;DHT22;51382;53.180;15.414;2023-08-24T18:35:36;20.90;98.60
20162;DHT22;51382;53.180;15.414;2023-08-24T18:50:47;20.70;98.90
20162;DHT22;51382;53.180;15.414;2023-08-24T19:05:59;20.30;99.40
20162;DHT22;51382;53.180;15.414;2023-08-24T19:21:11;19.90;99.90
20162;DHT22;51382;53.180;15.414;2023-08-24T19:36:23;19.70;99.90
20162;DHT22;51382;53.180;15.414;2023-08-24T19:51:35;19.50;99.90
20162;DHT22;51382;53.180;15.414;2023-08-24T20:06:52;19.20;99.90
20162;DHT22;51382;53.180;15.414;2023-08-24T20:22:07;18.80;99.90
20162;DHT22;51382;53.180;15.414;2023-08-24T20:37:22;18.70;99.90
20162;DHT22;51382;53.180;15.414;2023-08-24T20:52:34;18.60;99.90
20162;DHT22;51382;53.180;15.414;2023-08-24T21:07:55;18.60;99.90
20162;DHT22;51382;53.180;15.414;2023-08-24T21:23:12;18.50;99.90
20162;DHT22;51382;53.180;15.414;2023-08-24T21:38:25;18.50;99.90
20162;DHT22;51382;53.180;15.414;2023-08-24T21:53:36;18.40;99.90
20162;DHT22;51382;53.180;15.414;2023-08-24T22:08:48;18.30;99.90
20162;DHT22;51382;53.180;15.414;2023-08-24T22:23:59;18.20;99.90
20162;DHT22;51382;53.180;15.414;2023-08-24T22:39:11;18.40;99.90
20162;DHT22;51382;53.180;15.414;2023-08-24T22:54:23;18.20;99.90
20162;DHT22;51382;53.180;15.414;2023-08-24T23:09:35;18.10;99.90
20162;DHT22;51382;53.180;15.414;2023-08-24T23:24:47;18.10;99.90
20162;DHT22;51382;53.180;15.414;2023-08-24T23:39:58;18.20;99.90
20162;DHT22;51382;53.180;15.414;2023-08-24T23:55:11;18.20;99.90
